sensor_id;sensor_type;location;lat;lon;timestamp;temperature;humidity
67974;DHT22;54756;51.140;6.952;2023-07-22T00:01:16;13.90;79.10
67974;DHT22;54756;51.140;6.952;2023-07-22T00:03:16;13.90;79.60
67974;DHT22;54756;51.140;6.952;2023-07-22T00:05:17;13.90;79.40
67974;DHT22;54756;51.140;6.952;2023-07-22T00:07:23;13.80;79.70
67974;DHT22;54756;51.140;6.952;2023-07-22T00:09:23;13.80;79.10
67974;DHT22;54756;51.140;6.952;2023-07-22T00:11:24;13.80;78.70
67974;DHT22;54756;51.140;6.952;2023-07-22T00:13:25;13.70;80.80
67974;DHT22;54756;51.140;6.952;2023-07-22T00:15:27;13.70;80.60
67974;DHT22;54756;51.140;6.952;2023-07-22T00:17:27;13.70;80.50
67974;DHT22;54756;51.140;6.952;2023-07-22T00:19:28;13.70;80.80
67974;DHT22;54756;51.140;6.952;2023-07-22T00:21:28;13.60;80.30
67974;DHT22;54756;51.140;6.952;2023-07-22T00:23:29;13.60;79.80
67974;DHT22;54756;51.140;6.952;2023-07-22T00:25:30;13.60;79.10
67974;DHT22;54756;51.140;6.952;2023-07-22T00:27:30;13.60;79.00
67974;DHT22;54756;51.140;6.952;2023-07-22T00:29:31;13.60;79.40
67974;DHT22;54756;51.140;6.952;2023-07-22T00:31:31;13.60;79.60
67974;DHT22;54756;51.140;6.952;2023-07-22T00:33:32;13.70;80.40
67974;DHT22;54756;51.140;6.952;2023-07-22T00:35:33;13.70;79.60
67974;DHT22;54756;51.140;6.952;2023-07-22T00:37:33;13.80;79.00
67974;DHT22;54756;51.140;6.952;2023-07-22T00:39:34;13.80;78.60
67974;DHT22;54756;51.140;6.952;2023-07-22T00:41:35;13.80;78.20
67974;DHT22;54756;51.140;6.952;2023-07-22T00:43:35;13.80;78.30
67974;DHT22;54756;51.140;6.952;2023-07-22T00:45:36;13.80;78.10
67974;DHT22;54756;51.140;6.952;2023-07-22T00:47:36;13.80;78.00
67974;DHT22;54756;51.140;6.952;2023-07-22T00:49:37;13.80;77.70
67974;DHT22;54756;51.140;6.952;2023-07-22T00:51:38;13.90;77.80
67974;DHT22;54756;51.140;6.952;2023-07-22T00:53:39;13.80;77.70
67974;DHT22;54756;51.140;6.952;2023-07-22T00:55:39;13.90;77.80
67974;DHT22;54756;51.140;6.952;2023-07-22T00:57:43;13.90;77.70
67974;DHT22;54756;51.140;6.952;2023-07-22T00:59:43;13.90;76.90
67974;DHT22;54756;51.140;6.952;2023-07-22T01:01:45;14.00;77.10
67974;DHT22;54756;51.140;6.952;2023-07-22T01:03:45;14.00;76.50
67974;DHT22;54756;51.140;6.952;2023-07-22T01:05:47;14.00;76.60
67974;DHT22;54756;51.140;6.952;2023-07-22T01:07:48;14.00;75.90
67974;DHT22;54756;51.140;6.952;2023-07-22T01:09:49;14.00;76.00
67974;DHT22;54756;51.140;6.952;2023-07-22T01:11:49;14.00;76.50
67974;DHT22;54756;51.140;6.952;2023-07-22T01:13:50;14.00;75.40
67974;DHT22;54756;51.140;6.952;2023-07-22T01:15:50;14.00;75.30
67974;DHT22;54756;51.140;6.952;2023-07-22T01:17:52;14.00;75.10
67974;DHT22;54756;51.140;6.952;2023-07-22T01:19:53;14.10;75.00
67974;DHT22;54756;51.140;6.952;2023-07-22T01:21:54;14.10;75.20
67974;DHT22;54756;51.140;6.952;2023-07-22T01:23:55;14.00;74.90
67974;DHT22;54756;51.140;6.952;2023-07-22T01:25:58;14.10;74.90
67974;DHT22;54756;51.140;6.952;2023-07-22T01:27:59;14.10;74.70
67974;DHT22;54756;51.140;6.952;2023-07-22T01:30:00;14.00;74.90
67974;DHT22;54756;51.140;6.952;2023-07-22T01:32:03;14.00;75.00
67974;DHT22;54756;51.140;6.952;2023-07-22T01:34:03;14.00;74.70
67974;DHT22;54756;51.140;6.952;2023-07-22T01:36:04;14.00;74.70
67974;DHT22;54756;51.140;6.952;2023-07-22T01:38:05;14.00;74.70
67974;DHT22;54756;51.140;6.952;2023-07-22T01:40:06;14.10;74.60
67974;DHT22;54756;51.140;6.952;2023-07-22T01:42:12;14.00;73.80
67974;DHT22;54756;51.140;6.952;2023-07-22T01:44:13;14.10;73.40
67974;DHT22;54756;51.140;6.952;2023-07-22T01:46:13;14.10;73.20
67974;DHT22;54756;51.140;6.952;2023-07-22T01:48:14;14.10;72.90
67974;DHT22;54756;51.140;6.952;2023-07-22T01:50:14;14.10;72.70
67974;DHT22;54756;51.140;6.952;2023-07-22T01:52:16;14.10;72.30
67974;DHT22;54756;51.140;6.952;2023-07-22T01:54:16;14.10;72.50
67974;DHT22;54756;51.140;6.952;2023-07-22T01:56:17;14.10;72.50
67974;DHT22;54756;51.140;6.952;2023-07-22T01:58:17;14.10;72.80
67974;DHT22;54756;51.140;6.952;2023-07-22T02:00:18;14.10;72.70
67974;DHT22;54756;51.140;6.952;2023-07-22T02:02:21;14.10;73.10
67974;DHT22;54756;51.140;6.952;2023-07-22T02:04:21;14.10;72.90
67974;DHT22;54756;51.140;6.952;2023-07-22T02:06:22;14.10;73.10
67974;DHT22;54756;51.140;6.952;2023-07-22T02:08:23;14.00;73.50
67974;DHT22;54756;51.140;6.952;2023-07-22T02:10:23;14.00;73.90
67974;DHT22;54756;51.140;6.952;2023-07-22T02:12:24;14.00;74.20
67974;DHT22;54756;51.140;6.952;2023-07-22T02:14:25;13.90;74.50
67974;DHT22;54756;51.140;6.952;2023-07-22T02:16:25;14.00;74.70
67974;DHT22;54756;51.140;6.952;2023-07-22T02:18:26;13.90;74.70
67974;DHT22;54756;51.140;6.952;2023-07-22T02:20:27;13.90;75.40
67974;DHT22;54756;51.140;6.952;2023-07-22T02:22:29;13.90;75.20
67974;DHT22;54756;51.140;6.952;2023-07-22T02:24:29;13.90;76.10
67974;DHT22;54756;51.140;6.952;2023-07-22T02:26:30;13.80;76.10
67974;DHT22;54756;51.140;6.952;2023-07-22T02:28:30;13.80;76.30
67974;DHT22;54756;51.140;6.952;2023-07-22T02:30:34;13.80;76.30
67974;DHT22;54756;51.140;6.952;2023-07-22T02:32:36;13.80;76.90
67974;DHT22;54756;51.140;6.952;2023-07-22T02:34:37;13.80;77.40
67974;DHT22;54756;51.140;6.952;2023-07-22T02:36:37;13.80;77.70
67974;DHT22;54756;51.140;6.952;2023-07-22T02:38:38;13.80;78.00
67974;DHT22;54756;51.140;6.952;2023-07-22T02:40:38;13.80;78.10
67974;DHT22;54756;51.140;6.952;2023-07-22T02:42:40;13.80;78.40
67974;DHT22;54756;51.140;6.952;2023-07-22T02:44:40;13.80;78.80
67974;DHT22;54756;51.140;6.952;2023-07-22T02:46:41;13.80;79.50
67974;DHT22;54756;51.140;6.952;2023-07-22T02:48:41;13.80;79.70
67974;DHT22;54756;51.140;6.952;2023-07-22T02:50:42;13.80;80.00
67974;DHT22;54756;51.140;6.952;2023-07-22T02:52:42;13.80;79.70
67974;DHT22;54756;51.140;6.952;2023-07-22T02:55:03;13.80;79.80
67974;DHT22;54756;51.140;6.952;2023-07-22T02:57:04;13.80;80.10
67974;DHT22;54756;51.140;6.952;2023-07-22T02:59:05;13.80;79.70
67974;DHT22;54756;51.140;6.952;2023-07-22T03:01:05;13.90;80.00
67974;DHT22;54756;51.140;6.952;2023-07-22T03:03:08;13.80;80.10
67974;DHT22;54756;51.140;6.952;2023-07-22T03:05:09;13.80;80.40
67974;DHT22;54756;51.140;6.952;2023-07-22T03:07:10;13.80;80.30
67974;DHT22;54756;51.140;6.952;2023-07-22T03:09:10;13.80;80.40
67974;DHT22;54756;51.140;6.952;2023-07-22T03:11:11;13.80;80.80
67974;DHT22;54756;51.140;6.952;2023-07-22T03:13:12;13.80;80.80
67974;DHT22;54756;51.140;6.952;2023-07-22T03:15:12;13.90;80.90
67974;DHT22;54756;51.140;6.952;2023-07-22T03:17:13;13.90;81.00
67974;DHT22;54756;51.140;6.952;2023-07-22T03:19:16;13.90;81.00
67974;DHT22;54756;51.140;6.952;2023-07-22T03:21:17;13.80;80.90
67974;DHT22;54756;51.140;6.952;2023-07-22T03:23:18;13.90;81.00
67974;DHT22;54756;51.140;6.952;2023-07-22T03:25:20;13.90;81.60
67974;DHT22;54756;51.140;6.952;2023-07-22T03:27:20;13.90;81.80
67974;DHT22;54756;51.140;6.952;2023-07-22T03:29:21;13.90;82.00
67974;DHT22;54756;51.140;6.952;2023-07-22T03:31:24;13.90;82.00
67974;DHT22;54756;51.140;6.952;2023-07-22T03:33:25;13.90;82.50
67974;DHT22;54756;51.140;6.952;2023-07-22T03:35:25;13.90;82.50
67974;DHT22;54756;51.140;6.952;2023-07-22T03:37:26;13.90;82.70
67974;DHT22;54756;51.140;6.952;2023-07-22T03:39:26;13.90;83.70
67974;DHT22;54756;51.140;6.952;2023-07-22T03:41:27;13.80;83.20
67974;DHT22;54756;51.140;6.952;2023-07-22T03:43:28;13.80;83.40
67974;DHT22;54756;51.140;6.952;2023-07-22T03:45:28;13.80;84.10
67974;DHT22;54756;51.140;6.952;2023-07-22T03:47:29;13.80;84.20
67974;DHT22;54756;51.140;6.952;2023-07-22T03:49:29;13.80;84.80
67974;DHT22;54756;51.140;6.952;2023-07-22T03:51:30;13.70;85.30
67974;DHT22;54756;51.140;6.952;2023-07-22T03:53:30;13.70;85.60
67974;DHT22;54756;51.140;6.952;2023-07-22T03:55:31;13.70;86.10
67974;DHT22;54756;51.140;6.952;2023-07-22T03:57:32;13.70;86.20
67974;DHT22;54756;51.140;6.952;2023-07-22T03:59:32;13.60;86.80
67974;DHT22;54756;51.140;6.952;2023-07-22T04:01:34;13.60;87.30
67974;DHT22;54756;51.140;6.952;2023-07-22T04:03:34;13.60;87.60
67974;DHT22;54756;51.140;6.952;2023-07-22T04:05:35;13.60;88.10
67974;DHT22;54756;51.140;6.952;2023-07-22T04:07:35;13.60;89.00
67974;DHT22;54756;51.140;6.952;2023-07-22T04:09:36;13.60;89.70
67974;DHT22;54756;51.140;6.952;2023-07-22T04:11:36;13.60;89.20
67974;DHT22;54756;51.140;6.952;2023-07-22T04:13:37;13.60;89.80
67974;DHT22;54756;51.140;6.952;2023-07-22T04:15:37;13.60;89.70
67974;DHT22;54756;51.140;6.952;2023-07-22T04:17:38;13.70;89.90
67974;DHT22;54756;51.140;6.952;2023-07-22T04:19:39;13.70;90.10
67974;DHT22;54756;51.140;6.952;2023-07-22T04:21:39;13.70;90.00
67974;DHT22;54756;51.140;6.952;2023-07-22T04:23:40;13.70;90.10
67974;DHT22;54756;51.140;6.952;2023-07-22T04:25:41;13.70;90.10
67974;DHT22;54756;51.140;6.952;2023-07-22T04:27:43;13.80;90.10
67974;DHT22;54756;51.140;6.952;2023-07-22T04:29:43;13.80;90.10
67974;DHT22;54756;51.140;6.952;2023-07-22T04:31:44;13.80;90.00
67974;DHT22;54756;51.140;6.952;2023-07-22T04:33:44;13.90;90.00
67974;DHT22;54756;51.140;6.952;2023-07-22T04:35:45;13.90;89.80
67974;DHT22;54756;51.140;6.952;2023-07-22T04:37:46;13.90;89.60
67974;DHT22;54756;51.140;6.952;2023-07-22T04:39:48;13.90;89.30
67974;DHT22;54756;51.140;6.952;2023-07-22T04:41:50;14.00;89.50
67974;DHT22;54756;51.140;6.952;2023-07-22T04:43:50;14.00;89.20
67974;DHT22;54756;51.140;6.952;2023-07-22T04:45:51;14.00;89.20
67974;DHT22;54756;51.140;6.952;2023-07-22T04:47:52;14.10;89.10
67974;DHT22;54756;51.140;6.952;2023-07-22T04:49:52;14.10;89.30
67974;DHT22;54756;51.140;6.952;2023-07-22T04:51:53;14.10;89.10
67974;DHT22;54756;51.140;6.952;2023-07-22T04:53:53;14.10;88.80
67974;DHT22;54756;51.140;6.952;2023-07-22T04:55:54;14.20;89.00
67974;DHT22;54756;51.140;6.952;2023-07-22T04:57:55;14.20;89.00
67974;DHT22;54756;51.140;6.952;2023-07-22T04:59:56;14.20;89.10
67974;DHT22;54756;51.140;6.952;2023-07-22T05:01:56;14.20;89.50
67974;DHT22;54756;51.140;6.952;2023-07-22T05:03:57;14.20;89.10
67974;DHT22;54756;51.140;6.952;2023-07-22T05:05:58;14.30;88.80
67974;DHT22;54756;51.140;6.952;2023-07-22T05:07:58;14.30;88.70
67974;DHT22;54756;51.140;6.952;2023-07-22T05:09:59;14.30;88.50
67974;DHT22;54756;51.140;6.952;2023-07-22T05:11:59;14.30;88.40
67974;DHT22;54756;51.140;6.952;2023-07-22T05:14:00;14.40;88.00
67974;DHT22;54756;51.140;6.952;2023-07-22T05:16:01;14.30;88.00
67974;DHT22;54756;51.140;6.952;2023-07-22T05:18:01;14.30;88.10
67974;DHT22;54756;51.140;6.952;2023-07-22T05:20:02;14.40;88.30
67974;DHT22;54756;51.140;6.952;2023-07-22T05:22:04;14.40;87.90
67974;DHT22;54756;51.140;6.952;2023-07-22T05:24:04;14.50;87.30
67974;DHT22;54756;51.140;6.952;2023-07-22T05:26:05;14.60;86.80
67974;DHT22;54756;51.140;6.952;2023-07-22T05:28:06;14.60;86.40
67974;DHT22;54756;51.140;6.952;2023-07-22T05:30:07;14.80;86.80
67974;DHT22;54756;51.140;6.952;2023-07-22T05:32:08;14.80;85.60
67974;DHT22;54756;51.140;6.952;2023-07-22T05:34:08;14.90;84.90
67974;DHT22;54756;51.140;6.952;2023-07-22T05:36:09;15.00;84.10
67974;DHT22;54756;51.140;6.952;2023-07-22T05:38:09;15.10;83.30
67974;DHT22;54756;51.140;6.952;2023-07-22T05:40:10;15.10;81.80
67974;DHT22;54756;51.140;6.952;2023-07-22T05:42:11;15.10;82.10
67974;DHT22;54756;51.140;6.952;2023-07-22T05:44:12;15.20;82.20
67974;DHT22;54756;51.140;6.952;2023-07-22T05:46:12;15.20;81.80
67974;DHT22;54756;51.140;6.952;2023-07-22T05:48:13;15.30;80.50
67974;DHT22;54756;51.140;6.952;2023-07-22T05:50:14;15.30;80.90
67974;DHT22;54756;51.140;6.952;2023-07-22T05:52:14;15.30;81.10
67974;DHT22;54756;51.140;6.952;2023-07-22T05:54:15;15.40;81.20
67974;DHT22;54756;51.140;6.952;2023-07-22T05:56:16;15.40;80.00
67974;DHT22;54756;51.140;6.952;2023-07-22T05:58:17;15.40;79.90
67974;DHT22;54756;51.140;6.952;2023-07-22T06:00:20;15.40;79.50
67974;DHT22;54756;51.140;6.952;2023-07-22T06:02:21;15.50;79.30
67974;DHT22;54756;51.140;6.952;2023-07-22T06:04:22;15.50;79.50
67974;DHT22;54756;51.140;6.952;2023-07-22T06:06:22;15.50;78.60
67974;DHT22;54756;51.140;6.952;2023-07-22T06:08:23;15.50;78.80
67974;DHT22;54756;51.140;6.952;2023-07-22T06:10:24;15.60;78.90
67974;DHT22;54756;51.140;6.952;2023-07-22T06:12:25;15.70;78.00
67974;DHT22;54756;51.140;6.952;2023-07-22T06:14:25;15.90;76.00
67974;DHT22;54756;51.140;6.952;2023-07-22T06:16:26;15.90;75.80
67974;DHT22;54756;51.140;6.952;2023-07-22T06:18:27;16.10;75.20
67974;DHT22;54756;51.140;6.952;2023-07-22T06:20:28;16.30;73.10
67974;DHT22;54756;51.140;6.952;2023-07-22T06:22:29;16.40;69.30
67974;DHT22;54756;51.140;6.952;2023-07-22T06:24:29;16.50;67.50
67974;DHT22;54756;51.140;6.952;2023-07-22T06:26:30;16.50;65.60
67974;DHT22;54756;51.140;6.952;2023-07-22T06:28:30;16.60;65.90
67974;DHT22;54756;51.140;6.952;2023-07-22T06:30:31;16.70;64.40
67974;DHT22;54756;51.140;6.952;2023-07-22T06:32:31;16.70;64.30
67974;DHT22;54756;51.140;6.952;2023-07-22T06:34:32;16.80;63.10
67974;DHT22;54756;51.140;6.952;2023-07-22T06:36:32;16.90;60.20
67974;DHT22;54756;51.140;6.952;2023-07-22T06:38:33;16.90;59.40
67974;DHT22;54756;51.140;6.952;2023-07-22T06:40:33;17.00;60.20
67974;DHT22;54756;51.140;6.952;2023-07-22T06:42:34;17.00;59.40
67974;DHT22;54756;51.140;6.952;2023-07-22T06:44:35;17.10;60.40
67974;DHT22;54756;51.140;6.952;2023-07-22T06:46:35;17.20;57.60
67974;DHT22;54756;51.140;6.952;2023-07-22T06:48:36;17.20;56.80
67974;DHT22;54756;51.140;6.952;2023-07-22T06:50:36;17.30;55.70
67974;DHT22;54756;51.140;6.952;2023-07-22T06:52:37;17.30;53.30
67974;DHT22;54756;51.140;6.952;2023-07-22T06:54:37;17.30;54.10
67974;DHT22;54756;51.140;6.952;2023-07-22T06:56:38;17.40;42.90
67974;DHT22;54756;51.140;6.952;2023-07-22T06:58:38;17.50;45.20
67974;DHT22;54756;51.140;6.952;2023-07-22T07:00:39;17.60;43.70
67974;DHT22;54756;51.140;6.952;2023-07-22T07:02:40;17.70;37.90
67974;DHT22;54756;51.140;6.952;2023-07-22T07:04:41;17.80;39.70
67974;DHT22;54756;51.140;6.952;2023-07-22T07:06:41;17.80;36.40
67974;DHT22;54756;51.140;6.952;2023-07-22T07:08:42;17.90;35.10
67974;DHT22;54756;51.140;6.952;2023-07-22T07:10:42;17.90;36.00
67974;DHT22;54756;51.140;6.952;2023-07-22T07:12:43;17.90;34.30
67974;DHT22;54756;51.140;6.952;2023-07-22T07:14:43;18.00;33.20
67974;DHT22;54756;51.140;6.952;2023-07-22T07:16:44;18.00;33.50
67974;DHT22;54756;51.140;6.952;2023-07-22T07:18:45;18.00;32.70
67974;DHT22;54756;51.140;6.952;2023-07-22T07:20:45;18.00;34.50
67974;DHT22;54756;51.140;6.952;2023-07-22T07:22:46;18.00;34.30
67974;DHT22;54756;51.140;6.952;2023-07-22T07:24:47;18.00;35.90
67974;DHT22;54756;51.140;6.952;2023-07-22T07:26:47;18.00;36.30
67974;DHT22;54756;51.140;6.952;2023-07-22T07:28:49;18.10;35.60
67974;DHT22;54756;51.140;6.952;2023-07-22T07:30:51;18.10;33.20
67974;DHT22;54756;51.140;6.952;2023-07-22T07:32:51;18.20;34.30
67974;DHT22;54756;51.140;6.952;2023-07-22T07:34:52;18.30;31.10
67974;DHT22;54756;51.140;6.952;2023-07-22T07:36:52;18.30;30.00
67974;DHT22;54756;51.140;6.952;2023-07-22T07:38:53;18.40;31.40
67974;DHT22;54756;51.140;6.952;2023-07-22T07:41:04;18.60;31.50
67974;DHT22;54756;51.140;6.952;2023-07-22T07:43:06;18.70;29.70
67974;DHT22;54756;51.140;6.952;2023-07-22T07:45:07;18.90;28.30
67974;DHT22;54756;51.140;6.952;2023-07-22T07:47:08;19.00;25.10
67974;DHT22;54756;51.140;6.952;2023-07-22T07:49:08;19.10;26.60
67974;DHT22;54756;51.140;6.952;2023-07-22T07:51:09;19.20;24.30
67974;DHT22;54756;51.140;6.952;2023-07-22T07:53:09;19.20;20.30
67974;DHT22;54756;51.140;6.952;2023-07-22T07:55:10;19.20;21.20
67974;DHT22;54756;51.140;6.952;2023-07-22T07:57:10;19.20;24.20
67974;DHT22;54756;51.140;6.952;2023-07-22T07:59:11;19.30;22.40
67974;DHT22;54756;51.140;6.952;2023-07-22T08:01:12;19.30;21.90
67974;DHT22;54756;51.140;6.952;2023-07-22T08:03:12;19.40;20.00
67974;DHT22;54756;51.140;6.952;2023-07-22T08:05:13;19.30;20.00
67974;DHT22;54756;51.140;6.952;2023-07-22T08:07:16;19.30;21.40
67974;DHT22;54756;51.140;6.952;2023-07-22T08:09:16;19.30;23.70
67974;DHT22;54756;51.140;6.952;2023-07-22T08:11:19;19.30;23.00
67974;DHT22;54756;51.140;6.952;2023-07-22T08:13:20;19.30;23.40
67974;DHT22;54756;51.140;6.952;2023-07-22T08:15:20;19.40;22.90
67974;DHT22;54756;51.140;6.952;2023-07-22T08:17:21;19.40;23.30
67974;DHT22;54756;51.140;6.952;2023-07-22T08:19:22;19.40;23.20
67974;DHT22;54756;51.140;6.952;2023-07-22T08:21:22;19.60;23.30
67974;DHT22;54756;51.140;6.952;2023-07-22T08:23:23;19.60;22.10
67974;DHT22;54756;51.140;6.952;2023-07-22T08:25:24;19.60;22.00
67974;DHT22;54756;51.140;6.952;2023-07-22T08:27:24;19.60;20.40
67974;DHT22;54756;51.140;6.952;2023-07-22T08:29:25;19.70;21.10
67974;DHT22;54756;51.140;6.952;2023-07-22T08:31:25;19.70;20.90
67974;DHT22;54756;51.140;6.952;2023-07-22T08:33:27;19.70;21.60
67974;DHT22;54756;51.140;6.952;2023-07-22T08:35:28;19.70;19.90
67974;DHT22;54756;51.140;6.952;2023-07-22T08:37:29;19.60;17.20
67974;DHT22;54756;51.140;6.952;2023-07-22T08:39:31;19.50;20.10
67974;DHT22;54756;51.140;6.952;2023-07-22T08:41:32;19.50;21.20
67974;DHT22;54756;51.140;6.952;2023-07-22T08:43:34;19.50;20.60
67974;DHT22;54756;51.140;6.952;2023-07-22T08:45:38;19.50;19.10
67974;DHT22;54756;51.140;6.952;2023-07-22T08:47:46;19.50;18.70
67974;DHT22;54756;51.140;6.952;2023-07-22T08:49:51;19.60;19.10
67974;DHT22;54756;51.140;6.952;2023-07-22T08:51:54;19.70;18.70
67974;DHT22;54756;51.140;6.952;2023-07-22T08:53:58;19.70;17.50
67974;DHT22;54756;51.140;6.952;2023-07-22T08:56:00;19.80;20.50
67974;DHT22;54756;51.140;6.952;2023-07-22T08:58:01;19.90;19.40
67974;DHT22;54756;51.140;6.952;2023-07-22T09:00:02;20.10;15.90
67974;DHT22;54756;51.140;6.952;2023-07-22T09:02:10;20.20;10.80
67974;DHT22;54756;51.140;6.952;2023-07-22T09:04:12;20.30;10.20
67974;DHT22;54756;51.140;6.952;2023-07-22T09:06:12;20.30;8.20
67974;DHT22;54756;51.140;6.952;2023-07-22T09:08:13;20.40;8.20
67974;DHT22;54756;51.140;6.952;2023-07-22T09:10:15;20.50;8.20
67974;DHT22;54756;51.140;6.952;2023-07-22T09:12:17;20.50;5.30
67974;DHT22;54756;51.140;6.952;2023-07-22T09:14:19;20.50;3.00
67974;DHT22;54756;51.140;6.952;2023-07-22T09:16:20;20.50;1.70
67974;DHT22;54756;51.140;6.952;2023-07-22T09:18:20;20.50;4.00
67974;DHT22;54756;51.140;6.952;2023-07-22T09:20:21;20.50;3.50
67974;DHT22;54756;51.140;6.952;2023-07-22T09:22:26;20.50;6.10
67974;DHT22;54756;51.140;6.952;2023-07-22T09:24:27;20.60;4.60
67974;DHT22;54756;51.140;6.952;2023-07-22T09:26:32;20.60;6.40
67974;DHT22;54756;51.140;6.952;2023-07-22T09:28:57;20.50;6.90
67974;DHT22;54756;51.140;6.952;2023-07-22T09:31:02;20.60;7.50
67974;DHT22;54756;51.140;6.952;2023-07-22T09:33:04;20.60;1.00
67974;DHT22;54756;51.140;6.952;2023-07-22T09:35:05;20.50;1.00
67974;DHT22;54756;51.140;6.952;2023-07-22T09:37:09;20.40;5.40
67974;DHT22;54756;51.140;6.952;2023-07-22T09:39:14;20.50;2.00
67974;DHT22;54756;51.140;6.952;2023-07-22T09:41:18;20.50;1.00
67974;DHT22;54756;51.140;6.952;2023-07-22T09:43:19;20.50;2.40
67974;DHT22;54756;51.140;6.952;2023-07-22T09:45:22;20.50;1.60
67974;DHT22;54756;51.140;6.952;2023-07-22T09:47:23;20.60;5.30
67974;DHT22;54756;51.140;6.952;2023-07-22T09:49:24;20.80;5.10
67974;DHT22;54756;51.140;6.952;2023-07-22T09:51:24;21.00;1.00
67974;DHT22;54756;51.140;6.952;2023-07-22T09:53:25;21.30;1.00
67974;DHT22;54756;51.140;6.952;2023-07-22T09:55:27;21.50;1.00
67974;DHT22;54756;51.140;6.952;2023-07-22T09:57:33;21.60;1.00
67974;DHT22;54756;51.140;6.952;2023-07-22T09:59:35;21.60;1.00
67974;DHT22;54756;51.140;6.952;2023-07-22T10:01:38;21.60;1.00
67974;DHT22;54756;51.140;6.952;2023-07-22T10:03:40;21.80;1.00
67974;DHT22;54756;51.140;6.952;2023-07-22T10:05:45;21.90;1.00
67974;DHT22;54756;51.140;6.952;2023-07-22T10:07:51;22.00;1.00
67974;DHT22;54756;51.140;6.952;2023-07-22T10:09:54;22.20;1.00
67974;DHT22;54756;51.140;6.952;2023-07-22T10:11:56;22.10;1.00
67974;DHT22;54756;51.140;6.952;2023-07-22T10:13:56;22.20;1.00
67974;DHT22;54756;51.140;6.952;2023-07-22T10:15:57;22.10;1.00
67974;DHT22;54756;51.140;6.952;2023-07-22T10:18:00;22.00;1.00
67974;DHT22;54756;51.140;6.952;2023-07-22T10:20:02;21.90;1.00
67974;DHT22;54756;51.140;6.952;2023-07-22T10:22:06;21.80;1.00
67974;DHT22;54756;51.140;6.952;2023-07-22T10:24:10;21.70;1.00
67974;DHT22;54756;51.140;6.952;2023-07-22T10:26:11;21.70;1.00
67974;DHT22;54756;51.140;6.952;2023-07-22T10:28:14;21.70;1.00
67974;DHT22;54756;51.140;6.952;2023-07-22T10:30:17;21.70;1.00
67974;DHT22;54756;51.140;6.952;2023-07-22T10:32:17;21.60;1.00
67974;DHT22;54756;51.140;6.952;2023-07-22T10:34:23;21.60;1.00
67974;DHT22;54756;51.140;6.952;2023-07-22T10:36:29;21.50;1.00
67974;DHT22;54756;51.140;6.952;2023-07-22T10:38:30;21.60;1.00
67974;DHT22;54756;51.140;6.952;2023-07-22T10:40:30;21.60;1.00
67974;DHT22;54756;51.140;6.952;2023-07-22T10:42:32;21.70;1.00
67974;DHT22;54756;51.140;6.952;2023-07-22T10:44:36;21.90;1.00
67974;DHT22;54756;51.140;6.952;2023-07-22T10:46:38;22.00;1.00
67974;DHT22;54756;51.140;6.952;2023-07-22T10:48:41;22.10;1.00
67974;DHT22;54756;51.140;6.952;2023-07-22T10:50:43;22.20;1.00
67974;DHT22;54756;51.140;6.952;2023-07-22T10:52:44;22.20;1.00
67974;DHT22;54756;51.140;6.952;2023-07-22T10:54:45;22.30;1.00
67974;DHT22;54756;51.140;6.952;2023-07-22T10:56:45;22.40;1.00
67974;DHT22;54756;51.140;6.952;2023-07-22T11:00:47;22.60;1.00
67974;DHT22;54756;51.140;6.952;2023-07-22T11:03:11;22.70;1.00
67974;DHT22;54756;51.140;6.952;2023-07-22T11:05:11;22.80;1.00
67974;DHT22;54756;51.140;6.952;2023-07-22T11:07:33;22.80;1.00
67974;DHT22;54756;51.140;6.952;2023-07-22T11:09:35;22.90;1.00
67974;DHT22;54756;51.140;6.952;2023-07-22T11:11:41;22.80;1.00
67974;DHT22;54756;51.140;6.952;2023-07-22T11:13:44;22.80;1.00
67974;DHT22;54756;51.140;6.952;2023-07-22T11:15:48;22.90;1.00
67974;DHT22;54756;51.140;6.952;2023-07-22T11:17:48;23.00;1.00
67974;DHT22;54756;51.140;6.952;2023-07-22T11:19:49;22.90;1.00
67974;DHT22;54756;51.140;6.952;2023-07-22T11:21:51;22.90;1.00
67974;DHT22;54756;51.140;6.952;2023-07-22T11:23:51;22.80;1.00
67974;DHT22;54756;51.140;6.952;2023-07-22T11:25:52;22.70;1.00
67974;DHT22;54756;51.140;6.952;2023-07-22T11:27:53;22.70;1.00
67974;DHT22;54756;51.140;6.952;2023-07-22T11:29:57;22.80;1.00
67974;DHT22;54756;51.140;6.952;2023-07-22T11:31:58;23.00;1.00
67974;DHT22;54756;51.140;6.952;2023-07-22T11:33:59;23.10;1.00
67974;DHT22;54756;51.140;6.952;2023-07-22T11:36:00;23.30;1.00
67974;DHT22;54756;51.140;6.952;2023-07-22T11:38:03;23.40;1.00
67974;DHT22;54756;51.140;6.952;2023-07-22T11:40:04;23.50;1.00
67974;DHT22;54756;51.140;6.952;2023-07-22T11:42:05;23.70;1.00
67974;DHT22;54756;51.140;6.952;2023-07-22T11:44:06;23.70;1.00
67974;DHT22;54756;51.140;6.952;2023-07-22T11:46:09;23.80;1.00
67974;DHT22;54756;51.140;6.952;2023-07-22T11:48:11;23.80;1.00
67974;DHT22;54756;51.140;6.952;2023-07-22T11:50:13;23.90;1.00
67974;DHT22;54756;51.140;6.952;2023-07-22T11:52:17;23.90;1.00
67974;DHT22;54756;51.140;6.952;2023-07-22T11:54:21;23.90;1.00
67974;DHT22;54756;51.140;6.952;2023-07-22T11:56:28;23.80;1.00
67974;DHT22;54756;51.140;6.952;2023-07-22T11:58:29;23.90;1.00
67974;DHT22;54756;51.140;6.952;2023-07-22T12:00:33;24.00;1.00
67974;DHT22;54756;51.140;6.952;2023-07-22T12:02:35;23.90;1.00
67974;DHT22;54756;51.140;6.952;2023-07-22T12:04:35;23.90;1.00
67974;DHT22;54756;51.140;6.952;2023-07-22T12:06:38;23.80;1.00
67974;DHT22;54756;51.140;6.952;2023-07-22T12:08:49;23.90;1.00
67974;DHT22;54756;51.140;6.952;2023-07-22T12:10:57;24.10;1.00
67974;DHT22;54756;51.140;6.952;2023-07-22T12:13:01;24.20;1.00
67974;DHT22;54756;51.140;6.952;2023-07-22T12:15:09;24.20;1.00
67974;DHT22;54756;51.140;6.952;2023-07-22T12:17:13;24.20;1.00
67974;DHT22;54756;51.140;6.952;2023-07-22T12:19:14;24.40;1.00
67974;DHT22;54756;51.140;6.952;2023-07-22T12:21:14;24.60;1.00
67974;DHT22;54756;51.140;6.952;2023-07-22T12:23:15;24.70;1.00
67974;DHT22;54756;51.140;6.952;2023-07-22T12:25:16;24.80;99.90
67974;DHT22;54756;51.140;6.952;2023-07-22T12:27:16;24.90;1.00
67974;DHT22;54756;51.140;6.952;2023-07-22T12:29:17;25.10;1.00
67974;DHT22;54756;51.140;6.952;2023-07-22T12:31:18;25.10;1.00
67974;DHT22;54756;51.140;6.952;2023-07-22T12:33:18;25.40;99.90
67974;DHT22;54756;51.140;6.952;2023-07-22T12:35:19;25.50;99.90
67974;DHT22;54756;51.140;6.952;2023-07-22T12:37:19;25.50;1.00
67974;DHT22;54756;51.140;6.952;2023-07-22T12:39:20;25.50;1.00
67974;DHT22;54756;51.140;6.952;2023-07-22T12:41:21;25.50;1.00
67974;DHT22;54756;51.140;6.952;2023-07-22T12:43:21;25.60;99.90
67974;DHT22;54756;51.140;6.952;2023-07-22T12:45:22;25.70;1.00
67974;DHT22;54756;51.140;6.952;2023-07-22T12:47:22;25.90;1.00
67974;DHT22;54756;51.140;6.952;2023-07-22T12:49:23;26.00;1.00
67974;DHT22;54756;51.140;6.952;2023-07-22T12:51:24;26.10;99.90
67974;DHT22;54756;51.140;6.952;2023-07-22T12:53:24;26.10;1.00